Time;durP1;ratioP1;P1;durP2;ratioP2;P2;SDS_P1;SDS_P2;PMS_P1;PMS_P2;Temp;Humidity;BMP_temperature;BMP_pressure;BME280_temperature;BME280_humidity;BME280_pressure;Samples;Min_cycle;Max_cycle;Signal;HPM_P1;HPM_P2
2023/12/20 00:01:19;;;;;;;5.77;0.33;;;;;;;14.04;53.33;101687.13;5047831;28;20037;-71
2023/12/20 00:03:44;;;;;;;0.00;0.00;;;;;;;14.37;52.79;101682.34;5062324;28;20091;-71
2023/12/20 00:06:10;;;;;;;0.00;0.00;;;;;;;13.48;54.19;101689.41;5054426;28;20058;-72
2023/12/20 00:08:35;;;;;;;0.00;0.00;;;;;;;13.69;53.32;101690.94;5061338;28;20032;-72
2023/12/20 00:11:00;;;;;;;0.00;0.00;;;;;;;13.46;54.36;101682.41;5056248;28;20086;-72
2023/12/20 00:13:26;;;;;;;0.00;0.00;;;;;;;13.91;53.31;101680.25;5058460;28;20040;-71
2023/12/20 00:15:51;;;;;;;0.00;0.00;;;;;;;13.72;53.97;101688.31;5067615;28;20438;-72
2023/12/20 00:18:16;;;;;;;0.00;0.00;;;;;;;13.61;54.20;101690.16;5054025;28;20021;-72
2023/12/20 00:20:42;;;;;;;0.17;0.17;;;;;;;13.42;54.93;101688.56;5068039;28;20062;-71
2023/12/20 00:23:07;;;;;;;8.53;1.37;;;;;;;13.73;54.34;101695.28;5063800;28;20029;-71
2023/12/20 00:25:34;;;;;;;16.07;1.53;;;;;;;13.97;53.25;101687.19;5049174;28;20037;-72
2023/12/20 00:28:00;;;;;;;9.10;1.63;;;;;;;13.34;55.56;101693.84;5049913;28;20531;-71
2023/12/20 00:30:25;;;;;;;3.07;0.93;;;;;;;13.85;54.28;101682.94;5061680;28;20104;-72
2023/12/20 00:32:51;;;;;;;9.13;1.20;;;;;;;14.07;54.40;101684.44;5049191;28;20033;-72
2023/12/20 00:35:16;;;;;;;4.00;1.07;;;;;;;14.04;53.87;101694.09;5068988;28;20078;-72
2023/12/20 00:37:43;;;;;;;13.57;1.47;;;;;;;13.94;54.22;101688.09;5052095;28;20420;-72
2023/12/20 00:40:09;;;;;;;11.13;1.67;;;;;;;13.93;54.26;101686.38;5050368;28;20079;-71
2023/12/20 00:42:35;;;;;;;7.67;1.30;;;;;;;13.97;53.97;101679.31;5029142;28;20018;-72
2023/12/20 00:45:01;;;;;;;13.03;2.80;;;;;;;13.79;54.53;101683.00;5054899;28;20061;-72
2023/12/20 00:47:26;;;;;;;11.07;2.10;;;;;;;14.29;53.79;101678.94;5047153;28;20491;-71
2023/12/20 00:49:52;;;;;;;6.60;1.30;;;;;;;15.29;50.99;101676.72;5065993;28;20139;-72
2023/12/20 00:52:18;;;;;;;6.37;1.30;;;;;;;14.89;52.14;101686.09;5060773;28;20036;-72
2023/12/20 00:54:43;;;;;;;13.50;1.10;;;;;;;14.32;52.71;101684.16;5065532;28;20060;-72
2023/12/20 00:57:09;;;;;;;10.80;1.73;;;;;;;13.74;53.50;101688.31;5052247;28;20072;-72
2023/12/20 00:59:34;;;;;;;6.17;1.27;;;;;;;13.81;54.19;101691.75;5057105;28;20035;-72
2023/12/20 01:02:00;;;;;;;9.77;1.20;;;;;;;14.05;53.95;101687.97;5055603;28;20055;-72
2023/12/20 01:04:25;;;;;;;16.83;2.13;;;;;;;14.20;53.21;101672.03;5062502;28;20040;-72
2023/12/20 01:06:52;;;;;;;14.37;1.70;;;;;;;14.28;52.43;101671.94;5053948;28;20483;-72
2023/12/20 01:09:18;;;;;;;13.00;2.37;;;;;;;13.73;53.29;101682.16;5052030;28;20078;-72
2023/12/20 01:11:43;;;;;;;13.07;1.40;;;;;;;12.98;55.84;101691.50;5058452;28;20025;-72
2023/12/20 01:14:09;;;;;;;8.87;1.90;;;;;;;13.57;54.27;101691.06;5063738;28;20051;-72
2023/12/20 01:16:34;;;;;;;8.93;2.17;;;;;;;13.53;52.91;101689.34;5068670;28;20472;-71
2023/12/20 01:19:00;;;;;;;18.00;1.93;;;;;;;14.17;52.78;101690.47;5057695;28;20065;-72
2023/12/20 01:21:25;;;;;;;3.63;1.27;;;;;;;13.57;53.52;101681.44;5062343;28;20025;-72
2023/12/20 01:23:51;;;;;;;3.70;1.63;;;;;;;13.87;52.97;101684.63;5052405;28;20036;-72
2023/12/20 01:26:16;;;;;;;6.43;1.80;;;;;;;13.57;53.10;101691.94;5049444;28;20032;-72
2023/12/20 01:28:42;;;;;;;6.63;1.37;;;;;;;13.73;53.81;101690.03;5053688;28;20107;-71
2023/12/20 01:31:08;;;;;;;7.63;2.10;;;;;;;13.86;52.87;101697.81;5070563;28;20127;-72
2023/12/20 01:33:33;;;;;;;10.13;2.23;;;;;;;13.56;54.35;101689.34;5069837;28;20465;-72
2023/12/20 01:35:59;;;;;;;19.13;2.70;;;;;;;13.64;54.30;101694.50;5051457;28;20465;-72
2023/12/20 01:38:25;;;;;;;10.10;1.30;;;;;;;14.11;53.47;101676.50;5055298;28;20486;-72
2023/12/20 01:40:50;;;;;;;7.90;1.80;;;;;;;13.97;53.94;101680.19;5060764;28;20071;-71
2023/12/20 01:43:16;;;;;;;14.17;3.03;;;;;;;14.28;52.99;101666.69;5050651;28;20465;-72
2023/12/20 01:45:41;;;;;;;11.00;2.23;;;;;;;14.48;52.59;101673.44;5068734;28;20044;-71
2023/12/20 01:48:09;;;;;;;19.30;1.97;;;;;;;13.69;54.26;101677.81;5053983;28;20527;-71
2023/12/20 01:50:36;;;;;;;12.27;1.53;;;;;;;14.15;53.20;101665.06;5050683;28;20033;-72
2023/12/20 01:53:02;;;;;;;7.13;1.80;;;;;;;13.97;54.13;101676.66;5031387;28;20112;-71
2023/12/20 01:55:31;;;;;;;9.93;1.40;;;;;;;14.60;51.66;101668.00;5046477;28;20132;-71
2023/12/20 01:57:57;;;;;;;10.80;1.53;;;;;;;14.98;50.70;101664.00;5048245;28;20029;-72
2023/12/20 02:00:26;;;;;;;6.33;1.33;;;;;;;13.64;53.73;101678.75;5065962;28;20043;-71
2023/12/20 02:02:53;;;;;;;14.80;2.57;;;;;;;14.32;51.70;101667.53;5071081;28;20021;-71
2023/12/20 02:05:18;;;;;;;8.23;1.43;;;;;;;14.36;52.39;101661.34;5056032;28;20428;-72
2023/12/20 02:07:44;;;;;;;15.07;1.37;;;;;;;14.34;52.37;101656.09;5051220;28;20024;-71
2023/12/20 02:10:09;;;;;;;8.83;2.93;;;;;;;14.07;52.75;101662.56;5077841;28;20444;-71
2023/12/20 02:12:35;;;;;;;11.67;1.13;;;;;;;14.13;52.64;101657.22;5070079;28;20039;-71
2023/12/20 02:15:01;;;;;;;12.63;2.20;;;;;;;14.60;52.12;101662.75;5058002;28;20442;-71
2023/12/20 02:17:27;;;;;;;12.47;1.50;;;;;;;14.57;51.60;101678.59;5045772;28;20029;-71
2023/12/20 02:19:53;;;;;;;14.43;1.57;;;;;;;13.98;52.81;101688.94;5045217;28;20119;-71
2023/12/20 02:22:18;;;;;;;15.00;2.53;;;;;;;13.96;52.40;101681.06;5045593;28;20026;-71
2023/12/20 02:24:43;;;;;;;15.10;1.80;;;;;;;14.75;51.23;101677.50;5040056;28;20029;-72
2023/12/20 02:27:09;;;;;;;9.00;1.23;;;;;;;14.24;52.40;101680.75;5049090;28;20098;-72
2023/12/20 02:29:35;;;;;;;13.03;1.77;;;;;;;15.09;50.43;101672.59;5070550;28;20170;-71
2023/12/20 02:32:01;;;;;;;5.23;0.87;;;;;;;13.61;53.32;101674.38;5069434;28;20493;-71
2023/12/20 02:34:26;;;;;;;14.67;1.10;;;;;;;13.93;53.58;101665.34;5067217;28;20194;-71
2023/12/20 02:36:52;;;;;;;7.70;2.07;;;;;;;14.02;53.68;101656.47;5066364;28;20021;-71
2023/12/20 02:39:18;;;;;;;5.97;1.53;;;;;;;14.06;53.01;101655.56;5048884;28;20342;-72
2023/12/20 02:41:44;;;;;;;16.47;2.30;;;;;;;13.69;53.77;101659.44;5050866;28;20017;-71
2023/12/20 02:44:09;;;;;;;5.03;1.07;;;;;;;14.37;52.19;101653.41;5049407;28;20052;-72
2023/12/20 02:46:34;;;;;;;14.73;1.90;;;;;;;14.63;50.98;101646.97;5068921;28;20033;-71
2023/12/20 02:49:00;;;;;;;10.77;1.70;;;;;;;14.53;51.93;101655.84;5050582;28;20025;-71
2023/12/20 02:51:25;;;;;;;12.90;2.50;;;;;;;15.00;50.87;101641.19;5069368;28;20028;-71
2023/12/20 02:53:51;;;;;;;21.00;2.10;;;;;;;13.91;53.23;101638.19;5069740;28;20146;-71
2023/12/20 02:56:16;;;;;;;4.80;2.03;;;;;;;13.86;53.09;101634.72;5050525;28;20025;-72
2023/12/20 02:58:41;;;;;;;10.27;1.07;;;;;;;14.55;51.50;101633.03;5047692;28;20033;-71
2023/12/20 03:01:07;;;;;;;12.77;1.53;;;;;;;13.61;53.57;101632.34;5065011;28;20514;-71
2023/12/20 03:03:32;;;;;;;11.53;1.77;;;;;;;14.41;51.62;101626.19;5049844;28;20037;-72
2023/12/20 03:05:58;;;;;;;6.97;1.10;;;;;;;13.86;52.95;101647.88;5044746;28;20067;-72
2023/12/20 03:08:23;;;;;;;18.93;2.87;;;;;;;13.79;53.75;101630.44;5045305;28;20040;-71
2023/12/20 03:10:48;;;;;;;6.97;1.57;;;;;;;13.67;53.79;101637.56;5050340;28;20052;-72
2023/12/20 03:13:14;;;;;;;7.87;1.57;;;;;;;14.38;52.27;101630.59;5047815;28;20029;-72
2023/12/20 03:15:40;;;;;;;3.37;1.43;;;;;;;14.31;51.47;101635.06;5060171;28;20025;-71
2023/12/20 03:18:05;;;;;;;9.00;1.60;;;;;;;14.47;52.38;101629.63;5050933;28;20025;-71
2023/12/20 03:20:34;;;;;;;9.33;0.97;;;;;;;14.01;52.67;101625.81;5049808;28;20040;-72
2023/12/20 03:23:02;;;;;;;10.07;2.30;;;;;;;14.26;52.23;101626.41;5050418;28;20033;-71
2023/12/20 03:25:27;;;;;;;4.23;1.30;;;;;;;14.78;51.43;101621.31;5055286;28;20043;-72
2023/12/20 03:27:53;;;;;;;6.50;1.20;;;;;;;14.34;52.09;101636.81;5052823;28;20033;-72
2023/12/20 03:30:18;;;;;;;10.50;1.80;;;;;;;13.67;53.50;101648.06;5052729;28;20467;-73
2023/12/20 03:32:44;;;;;;;8.73;1.70;;;;;;;14.19;52.15;101635.22;5044906;28;20029;-71
2023/12/20 03:35:10;;;;;;;14.17;2.23;;;;;;;13.74;52.97;101644.50;5035609;28;20028;-72
2023/12/20 03:37:35;;;;;;;9.77;1.67;;;;;;;13.83;53.31;101650.53;5058051;28;20033;-72
2023/12/20 03:40:01;;;;;;;2.20;1.13;;;;;;;14.04;52.63;101642.44;5048725;28;20028;-72
2023/12/20 03:42:26;;;;;;;13.33;2.00;;;;;;;13.92;52.10;101637.31;5044950;28;20485;-72
2023/12/20 03:44:52;;;;;;;8.00;1.17;;;;;;;13.78;52.05;101639.19;5055013;28;20550;-72
2023/12/20 03:47:17;;;;;;;9.43;2.17;;;;;;;13.85;52.41;101646.16;5054847;28;20060;-72
2023/12/20 03:49:42;;;;;;;9.63;1.53;;;;;;;13.74;52.29;101622.63;5049472;28;20025;-72
2023/12/20 03:52:08;;;;;;;7.33;1.97;;;;;;;12.95;54.81;101636.38;5068343;28;20029;-72
2023/12/20 03:54:35;;;;;;;11.30;1.00;;;;;;;13.98;52.25;101621.47;5067528;28;20020;-72
2023/12/20 03:57:00;;;;;;;6.97;0.90;;;;;;;13.82;52.76;101625.16;5050933;28;20056;-72
2023/12/20 03:59:25;;;;;;;11.17;1.43;;;;;;;13.71;53.10;101623.50;5049099;28;20110;-72
2023/12/20 04:01:51;;;;;;;7.23;1.13;;;;;;;12.69;54.94;101619.09;5063985;28;20017;-72
2023/12/20 04:04:16;;;;;;;8.00;1.37;;;;;;;13.84;52.48;101613.72;5067819;28;20537;-72
2023/12/20 04:06:42;;;;;;;8.57;1.50;;;;;;;12.91;55.77;101624.16;5054676;28;20036;-72
2023/12/20 04:09:09;;;;;;;9.83;1.83;;;;;;;13.46;54.35;101617.63;5048699;28;20031;-72
2023/12/20 04:11:34;;;;;;;12.50;1.50;;;;;;;13.22;54.42;101623.94;5053683;28;20067;-72
2023/12/20 04:14:00;;;;;;;12.90;1.20;;;;;;;13.45;53.93;101625.50;5047662;28;20067;-71
2023/12/20 04:16:26;;;;;;;10.93;1.80;;;;;;;14.14;52.71;101626.56;5057529;28;20127;-72
2023/12/20 04:18:51;;;;;;;12.30;2.63;;;;;;;13.91;53.37;101622.41;5048275;28;20021;-72
2023/12/20 04:21:17;;;;;;;12.57;1.70;;;;;;;13.49;54.25;101621.97;5055694;28;20044;-72
2023/12/20 04:23:43;;;;;;;9.03;1.40;;;;;;;13.76;53.41;101614.72;5043542;28;20033;-72
2023/12/20 04:26:09;;;;;;;18.27;1.57;;;;;;;14.32;52.73;101621.03;5040780;28;20472;-72
2023/12/20 04:28:34;;;;;;;4.33;0.90;;;;;;;13.35;54.34;101625.63;5048815;28;20037;-71
2023/12/20 04:31:03;;;;;;;15.97;2.03;;;;;;;13.48;54.08;101625.50;5055303;28;20032;-72
2023/12/20 04:33:28;;;;;;;9.07;1.43;;;;;;;13.70;54.43;101624.41;5051580;28;20036;-72
2023/12/20 04:35:53;;;;;;;9.00;2.00;;;;;;;12.90;55.59;101627.69;5054089;28;20499;-72
2023/12/20 04:38:19;;;;;;;14.27;1.27;;;;;;;13.53;54.04;101629.84;5053587;28;20028;-72
2023/12/20 04:40:44;;;;;;;10.00;1.97;;;;;;;14.11;52.53;101610.78;5056157;28;20373;-72
2023/12/20 04:43:09;;;;;;;9.43;1.60;;;;;;;13.60;53.96;101619.25;5054233;28;20029;-72
2023/12/20 04:45:35;;;;;;;13.63;1.43;;;;;;;13.34;54.42;101618.59;5037010;28;20468;-72
2023/12/20 04:48:02;;;;;;;9.70;1.73;;;;;;;13.22;55.22;101608.19;5057840;28;20086;-73
2023/12/20 04:50:27;;;;;;;5.63;1.40;;;;;;;13.93;53.52;101602.25;5038380;28;20144;-72
2023/12/20 04:52:53;;;;;;;9.63;1.40;;;;;;;13.21;53.53;101612.56;5063268;28;20473;-72
2023/12/20 04:55:18;;;;;;;8.77;1.50;;;;;;;13.43;54.09;101607.16;5032232;28;20029;-72
2023/12/20 04:57:44;;;;;;;9.77;1.20;;;;;;;13.94;52.45;101598.72;5052610;28;20040;-72
2023/12/20 05:00:09;;;;;;;3.30;0.93;;;;;;;13.68;52.82;101601.66;5051371;28;20033;-72
2023/12/20 05:02:36;;;;;;;12.60;1.57;;;;;;;13.66;52.10;101600.81;5061774;28;20060;-72
2023/12/20 05:05:01;;;;;;;11.50;1.47;;;;;;;13.39;52.84;101614.22;5030761;28;20029;-72
2023/12/20 05:07:26;;;;;;;6.23;1.47;;;;;;;13.42;53.36;101618.53;5057119;28;20503;-72
2023/12/20 05:09:52;;;;;;;13.90;2.27;;;;;;;13.25;53.67;101613.41;5068008;28;20083;-73
2023/12/20 05:12:17;;;;;;;10.10;1.67;;;;;;;13.10;54.14;101613.56;5062078;28;20037;-72
2023/12/20 05:14:42;;;;;;;14.40;1.40;;;;;;;13.59;52.90;101613.13;5051308;28;20032;-71
2023/12/20 05:17:08;;;;;;;6.07;1.50;;;;;;;14.25;51.58;101606.25;5059541;28;20033;-71
2023/12/20 05:19:35;;;;;;;5.70;1.57;;;;;;;13.51;53.31;101609.72;5051712;28;20366;-72
2023/12/20 05:22:01;;;;;;;8.10;1.30;;;;;;;13.56;52.99;101616.66;5063495;28;20025;-71
2023/12/20 05:24:27;;;;;;;11.23;2.47;;;;;;;14.02;52.02;101617.91;5051590;28;20476;-71
2023/12/20 05:26:52;;;;;;;13.47;1.67;;;;;;;13.43;54.01;101622.03;5051338;28;20045;-72
2023/12/20 05:29:18;;;;;;;5.07;1.90;;;;;;;13.12;55.20;101617.91;5067356;28;20047;-71
2023/12/20 05:31:43;;;;;;;7.10;1.20;;;;;;;13.84;53.70;101612.88;5060105;28;20443;-71
2023/12/20 05:34:08;;;;;;;11.47;2.13;;;;;;;13.34;54.93;101621.22;5052437;28;20428;-73
2023/12/20 05:36:35;;;;;;;7.53;1.10;;;;;;;13.51;54.73;101620.22;5048342;28;20120;-71
2023/12/20 05:39:00;;;;;;;10.47;1.53;;;;;;;13.71;54.61;101613.00;5033850;28;20028;-71
2023/12/20 05:41:25;;;;;;;5.33;1.07;;;;;;;14.00;52.81;101609.19;5055674;28;20051;-72
2023/12/20 05:43:51;;;;;;;6.10;1.00;;;;;;;13.71;53.33;101613.00;5058580;28;20066;-72
2023/12/20 05:46:16;;;;;;;4.47;0.90;;;;;;;13.90;54.19;101612.78;5055552;28;20041;-72
2023/12/20 05:48:41;;;;;;;11.57;1.67;;;;;;;13.70;54.16;101611.25;5052275;28;20224;-72
2023/12/20 05:51:07;;;;;;;8.37;1.07;;;;;;;13.39;56.09;101614.22;5047914;28;20044;-72
2023/12/20 05:53:33;;;;;;;16.40;2.77;;;;;;;14.57;52.42;101597.03;5065004;28;20033;-72
2023/12/20 05:55:59;;;;;;;16.40;1.90;;;;;;;14.35;53.05;101594.69;5047148;28;20038;-73
2023/12/20 05:58:24;;;;;;;10.53;1.53;;;;;;;14.59;52.49;101608.41;5069235;28;20033;-72
2023/12/20 06:00:50;;;;;;;5.17;1.33;;;;;;;14.13;53.13;101593.25;5049299;28;20049;-72
2023/12/20 06:03:15;;;;;;;14.00;2.20;;;;;;;14.43;51.56;101595.47;5051474;28;20078;-71
2023/12/20 06:05:41;;;;;;;14.50;1.80;;;;;;;14.08;52.92;101602.06;5050673;28;20041;-71
2023/12/20 06:08:06;;;;;;;8.10;1.93;;;;;;;13.57;54.34;101604.38;5053999;28;20104;-73
2023/12/20 06:10:32;;;;;;;6.83;1.30;;;;;;;13.48;54.87;101615.88;5049491;28;20025;-72
2023/12/20 06:12:58;;;;;;;5.97;1.10;;;;;;;13.62;54.29;101599.97;5063851;28;20446;-72
2023/12/20 06:15:24;;;;;;;10.20;1.40;;;;;;;14.23;53.17;101595.75;5070427;28;20026;-72
2023/12/20 06:17:49;;;;;;;13.70;1.53;;;;;;;14.62;52.66;101613.63;5058234;28;20029;-72
2023/12/20 06:20:15;;;;;;;7.73;2.10;;;;;;;14.27;52.96;101604.44;5065886;28;20495;-72
2023/12/20 06:22:40;;;;;;;9.10;1.47;;;;;;;13.82;54.61;101604.13;5046360;28;20033;-72
2023/12/20 06:25:06;;;;;;;8.77;1.60;;;;;;;13.51;54.82;101613.19;5030034;28;20033;-72
2023/12/20 06:27:32;;;;;;;13.37;1.70;;;;;;;13.80;54.55;101605.91;5048555;28;20025;-71
2023/12/20 06:29:58;;;;;;;7.50;1.20;;;;;;;13.27;54.89;101611.66;5064915;28;20039;-72
2023/12/20 06:32:24;;;;;;;14.17;1.80;;;;;;;13.47;54.67;101602.75;5056694;28;20032;-71
2023/12/20 06:34:49;;;;;;;12.37;1.80;;;;;;;13.99;53.63;101602.19;5071397;28;20051;-71
2023/12/20 06:37:15;;;;;;;6.43;1.77;;;;;;;14.54;52.26;101599.72;5061802;28;20437;-72
2023/12/20 06:39:40;;;;;;;15.63;1.73;;;;;;;13.98;53.53;101600.44;5048829;28;20028;-71
2023/12/20 06:42:06;;;;;;;12.77;1.67;;;;;;;13.84;54.45;101602.38;5055093;28;20103;-71
2023/12/20 06:44:32;;;;;;;6.13;1.73;;;;;;;14.57;52.41;101599.66;5068545;28;20550;-72
2023/12/20 06:46:57;;;;;;;8.83;2.20;;;;;;;13.85;53.42;101596.22;5058486;28;20403;-72
2023/12/20 06:49:23;;;;;;;9.43;1.40;;;;;;;13.98;53.41;101592.53;5068992;28;20127;-71
2023/12/20 06:51:48;;;;;;;11.10;1.93;;;;;;;14.10;53.26;101582.78;5056417;28;20036;-72
2023/12/20 06:54:14;;;;;;;3.47;1.00;;;;;;;14.13;53.15;101593.25;5052032;28;20033;-71
2023/12/20 06:56:39;;;;;;;3.80;1.73;;;;;;;13.72;53.90;101583.22;5049864;28;20083;-71
2023/12/20 06:59:04;;;;;;;6.20;1.50;;;;;;;14.62;52.23;101587.31;5068298;28;20063;-72
2023/12/20 07:01:30;;;;;;;13.67;1.70;;;;;;;14.46;52.40;101580.53;5069983;28;20032;-72
2023/12/20 07:03:55;;;;;;;9.60;1.77;;;;;;;13.94;54.15;101577.69;5052127;28;20120;-72
2023/12/20 07:06:20;;;;;;;6.33;1.07;;;;;;;13.65;54.16;101571.03;5049125;28;20033;-71
2023/12/20 07:08:46;;;;;;;8.93;1.63;;;;;;;13.58;55.13;101575.47;5050166;28;20036;-71
2023/12/20 07:11:11;;;;;;;8.70;1.30;;;;;;;14.70;52.26;101563.53;5064655;28;20095;-72
2023/12/20 07:13:37;;;;;;;9.27;1.67;;;;;;;14.55;53.00;101564.63;5048665;28;20507;-72
2023/12/20 07:16:03;;;;;;;10.50;1.70;;;;;;;14.19;53.09;101562.50;5048556;28;20033;-72
2023/12/20 07:18:28;;;;;;;8.47;2.00;;;;;;;14.39;52.53;101564.84;5059523;28;20040;-71
2023/12/20 07:20:55;;;;;;;7.60;1.10;;;;;;;14.28;52.80;101565.91;5064380;28;20029;-72
2023/12/20 07:23:21;;;;;;;12.37;2.57;;;;;;;14.04;53.87;101547.81;5049439;28;20029;-72
2023/12/20 07:25:46;;;;;;;6.80;1.20;;;;;;;14.45;52.00;101557.75;5048094;28;20067;-71
2023/12/20 07:28:12;;;;;;;10.90;1.13;;;;;;;13.59;54.35;101552.72;5054014;28;20048;-71
2023/12/20 07:30:37;;;;;;;8.57;1.83;;;;;;;13.14;56.56;101558.38;5068579;28;20495;-72
2023/12/20 07:33:03;;;;;;;8.87;1.70;;;;;;;13.63;54.93;101559.69;5047289;28;20488;-72
2023/12/20 07:35:28;;;;;;;10.67;1.97;;;;;;;14.05;53.75;101554.81;5046139;28;20041;-71
2023/12/20 07:37:54;;;;;;;6.63;1.70;;;;;;;13.10;56.19;101574.19;5049777;28;20119;-72
2023/12/20 07:40:19;;;;;;;12.63;2.63;;;;;;;13.94;54.11;101571.59;5048838;28;20033;-71
2023/12/20 07:42:44;;;;;;;14.03;1.87;;;;;;;14.13;53.58;101577.47;5048622;28;20434;-72
2023/12/20 07:45:13;;;;;;;11.93;1.90;;;;;;;13.48;54.56;101588.75;5048590;28;20051;-72
2023/12/20 07:47:38;;;;;;;15.30;1.60;;;;;;;13.46;55.80;101586.09;5044267;28;20037;-72
2023/12/20 07:50:04;;;;;;;6.97;1.60;;;;;;;14.25;53.75;101577.31;5066465;28;20028;-72
2023/12/20 07:52:30;;;;;;;12.17;2.00;;;;;;;13.91;54.67;101583.00;5048747;28;20111;-71
2023/12/20 07:54:55;;;;;;;9.50;1.30;;;;;;;13.72;54.73;101580.59;5055651;28;20021;-72
2023/12/20 07:57:21;;;;;;;12.33;2.03;;;;;;;14.58;52.88;101583.84;5048814;28;20385;-72
2023/12/20 07:59:47;;;;;;;20.30;3.40;;;;;;;14.28;53.23;101579.91;5052157;28;20033;-72
2023/12/20 08:02:12;;;;;;;9.20;1.53;;;;;;;14.43;52.98;101587.56;5044267;28;20359;-72
2023/12/20 08:04:38;;;;;;;6.70;1.53;;;;;;;14.37;53.29;101592.03;5051550;28;20045;-72
2023/12/20 08:07:04;;;;;;;14.73;2.13;;;;;;;14.42;52.69;101601.63;5048671;28;20064;-72
2023/12/20 08:09:29;;;;;;;12.37;2.10;;;;;;;14.42;52.73;101592.84;5061143;28;20044;-72
2023/12/20 08:11:55;;;;;;;3.70;1.33;;;;;;;13.78;54.68;101602.41;5044401;28;20026;-71
2023/12/20 08:14:21;;;;;;;9.50;1.43;;;;;;;14.17;54.03;101608.09;5048923;28;20400;-72
2023/12/20 08:16:46;;;;;;;8.10;1.10;;;;;;;13.13;56.31;101613.50;5048125;28;20127;-71
2023/12/20 08:19:12;;;;;;;9.60;1.50;;;;;;;14.31;53.71;101603.53;5055980;28;20089;-71
2023/12/20 08:21:37;;;;;;;10.10;2.93;;;;;;;13.88;54.38;101609.31;5061294;28;20075;-72
2023/12/20 08:24:03;;;;;;;19.77;1.43;;;;;;;13.64;56.16;101613.97;5053521;28;20032;-72
2023/12/20 08:26:28;;;;;;;21.00;2.13;;;;;;;14.30;54.54;101595.66;5047872;28;20059;-72
2023/12/20 08:28:54;;;;;;;13.53;2.03;;;;;;;14.23;54.25;101595.75;5050732;28;20114;-71
2023/12/20 08:31:20;;;;;;;13.00;1.50;;;;;;;14.24;54.07;101593.97;5048657;28;20483;-72
2023/12/20 08:33:48;;;;;;;14.63;1.17;;;;;;;14.36;54.88;101591.19;5051494;28;20017;-72
2023/12/20 08:36:13;;;;;;;7.33;1.70;;;;;;;14.40;53.50;101587.63;5051115;28;20025;-72
2023/12/20 08:38:39;;;;;;;8.30;1.13;;;;;;;14.83;53.25;101582.66;5049496;28;20044;-72
2023/12/20 08:41:05;;;;;;;5.50;1.37;;;;;;;13.70;54.94;101600.75;5048909;28;20046;-71
2023/12/20 08:43:31;;;;;;;8.20;1.33;;;;;;;14.29;54.89;101594.81;5044317;28;20017;-72
2023/12/20 08:45:56;;;;;;;15.50;2.37;;;;;;;14.54;54.13;101602.34;5052056;28;20060;-71
2023/12/20 08:48:22;;;;;;;10.17;1.40;;;;;;;14.17;54.63;101600.22;5046267;28;20449;-71
2023/12/20 08:50:48;;;;;;;17.60;1.77;;;;;;;14.80;52.79;101606.41;5050184;28;20029;-71
2023/12/20 08:53:15;;;;;;;4.43;1.00;;;;;;;14.61;53.28;101596.09;5048718;28;20029;-71
2023/12/20 08:55:41;;;;;;;11.90;1.83;;;;;;;14.63;54.23;101591.72;5053931;28;20626;-72
2023/12/20 08:58:07;;;;;;;9.37;1.30;;;;;;;14.64;53.82;101596.06;5046685;28;20028;-72
2023/12/20 09:00:33;;;;;;;7.80;0.87;;;;;;;14.14;55.10;101605.53;5054061;28;20120;-72
2023/12/20 09:03:02;;;;;;;7.07;1.17;;;;;;;15.00;53.47;101585.91;5047760;28;20108;-72
2023/12/20 09:05:27;;;;;;;10.13;2.13;;;;;;;14.06;54.90;101593.31;5054422;28;20033;-72
2023/12/20 09:07:53;;;;;;;4.57;1.20;;;;;;;14.57;53.62;101586.50;5048945;28;20036;-72
2023/12/20 09:10:22;;;;;;;7.37;1.47;;;;;;;14.67;53.44;101592.53;5061395;28;20036;-71
2023/12/20 09:12:51;;;;;;;13.57;1.80;;;;;;;14.33;54.57;101588.59;5068265;28;20035;-71
2023/12/20 09:15:17;;;;;;;7.23;1.17;;;;;;;14.99;52.63;101576.25;5055200;28;20033;-72
2023/12/20 09:17:43;;;;;;;13.13;1.67;;;;;;;15.31;52.60;101587.13;5042365;28;20116;-72
2023/12/20 09:20:09;;;;;;;3.73;1.37;;;;;;;14.65;53.37;101582.03;5020184;28;20612;-71
2023/12/20 09:22:34;;;;;;;12.27;1.90;;;;;;;15.00;52.79;101583.25;5047232;28;20029;-71
2023/12/20 09:25:01;;;;;;;11.17;2.03;;;;;;;15.22;52.35;101583.75;5051863;28;20063;-71
2023/12/20 09:27:27;;;;;;;15.77;1.53;;;;;;;14.75;53.27;101570.50;5046826;28;20056;-72
2023/12/20 09:29:53;;;;;;;6.03;1.37;;;;;;;15.02;52.33;101581.44;5045818;28;20484;-72
2023/12/20 09:32:20;;;;;;;16.37;2.50;;;;;;;15.43;52.22;101571.97;5050441;28;20044;-72
2023/12/20 09:34:45;;;;;;;8.03;1.80;;;;;;;15.20;52.77;101579.41;5055147;28;20093;-71
2023/12/20 09:37:11;;;;;;;20.33;1.73;;;;;;;14.80;53.72;101580.09;5050131;28;20123;-71
2023/12/20 09:39:36;;;;;;;11.27;1.83;;;;;;;14.04;55.13;101591.59;5054586;28;20066;-73
2023/12/20 09:42:04;;;;;;;4.33;1.60;;;;;;;14.92;53.29;101587.78;5048995;28;20029;-72
2023/12/20 09:44:31;;;;;;;11.40;1.40;;;;;;;15.01;53.64;101590.25;5054959;28;20511;-71
2023/12/20 09:46:57;;;;;;;13.40;1.90;;;;;;;14.90;54.01;101581.66;5043261;28;20025;-71
2023/12/20 09:49:22;;;;;;;15.13;2.23;;;;;;;14.84;53.75;101587.03;5049681;28;20586;-71
2023/12/20 09:51:50;;;;;;;13.67;2.30;;;;;;;15.06;52.72;101591.03;5054804;28;20076;-72
2023/12/20 09:54:21;;;;;;;9.17;1.83;;;;;;;14.86;54.07;101606.28;5043266;28;20028;-72
2023/12/20 09:56:47;;;;;;;8.00;2.43;;;;;;;15.73;51.06;101611.81;5066207;28;20059;-72
2023/12/20 09:59:13;;;;;;;9.30;1.13;;;;;;;15.48;51.81;101613.16;5066153;28;20067;-72
2023/12/20 10:01:40;;;;;;;10.30;1.73;;;;;;;15.23;52.87;101610.94;5058618;28;20515;-72
2023/12/20 10:04:08;;;;;;;10.87;1.37;;;;;;;15.07;52.71;101608.59;5051042;28;20033;-72
2023/12/20 10:06:36;;;;;;;2.73;1.40;;;;;;;15.00;52.85;101609.59;5051674;28;20358;-72
2023/12/20 10:09:02;;;;;;;13.07;2.10;;;;;;;14.87;53.67;101603.63;5049321;28;20025;-72
2023/12/20 10:11:28;;;;;;;7.77;1.57;;;;;;;15.32;52.30;101605.53;5065574;28;20089;-72
2023/12/20 10:14:02;;;;;;;17.17;2.10;;;;;;;14.71;53.91;101605.66;5064315;28;20025;-72
2023/12/20 10:16:28;;;;;;;22.83;2.23;;;;;;;15.63;51.94;101599.69;5047223;28;20047;-72
2023/12/20 10:18:54;;;;;;;11.17;2.33;;;;;;;16.12;50.96;101592.59;5066760;28;20108;-71
2023/12/20 10:21:24;;;;;;;12.20;1.40;;;;;;;14.64;53.04;101606.59;5024174;28;20305;-72
2023/12/20 10:23:50;;;;;;;6.90;1.13;;;;;;;15.25;52.16;101606.53;5047731;28;20140;-72
2023/12/20 10:26:25;;;;;;;7.27;1.37;;;;;;;16.23;50.46;101597.66;5050732;28;20151;-72
2023/12/20 10:28:54;;;;;;;8.30;1.37;;;;;;;16.04;49.92;101592.75;5050274;28;20021;-72
2023/12/20 10:31:35;;;;;;;12.87;1.37;;;;;;;15.58;51.08;101607.69;5054325;28;20491;-72
2023/12/20 10:34:02;;;;;;;11.23;1.37;;;;;;;15.53;51.50;101582.31;5045930;28;20026;-72
2023/12/20 10:36:36;;;;;;;4.83;1.00;;;;;;;16.26;50.06;101587.03;5071498;28;20065;-72
2023/12/20 10:39:02;;;;;;;3.20;1.50;;;;;;;15.48;51.17;101586.81;5051819;28;20024;-73
2023/12/20 10:41:30;;;;;;;3.13;0.80;;;;;;;15.51;51.34;101592.00;5055113;28;20028;-72
2023/12/20 10:44:02;;;;;;;6.77;1.10;;;;;;;15.09;52.50;101587.50;5050354;28;20372;-72
2023/12/20 10:46:29;;;;;;;;;;;;;;;15.18;52.43;101576.81;5050267;28;20505;-73
2023/12/20 10:48:56;;;;;;;9.23;1.33;;;;;;;15.30;52.90;101578.34;5047379;28;20372;-72
2023/12/20 10:51:22;;;;;;;6.13;1.00;;;;;;;16.07;50.63;101568.97;5051703;28;20039;-72
2023/12/20 10:53:51;;;;;;;6.90;1.17;;;;;;;15.12;52.43;101578.66;5049167;28;20234;-72
2023/12/20 10:56:18;;;;;;;7.80;2.17;;;;;;;15.51;53.09;101570.94;5058317;28;20949;-72
2023/12/20 10:58:44;;;;;;;4.80;1.10;;;;;;;15.28;52.16;101561.72;5065183;28;20035;-72
2023/12/20 11:01:13;;;;;;;8.20;1.53;;;;;;;15.24;52.98;101565.28;5057588;28;20120;-72
2023/12/20 11:03:44;;;;;;;7.63;2.20;;;;;;;16.02;51.51;101557.66;5049454;28;20040;-72
2023/12/20 11:06:40;;;;;;;11.47;2.80;;;;;;;15.80;51.34;101559.00;5058237;28;20028;-71
2023/12/20 11:09:29;;;;;;;8.03;1.80;;;;;;;15.22;52.59;101556.53;5068089;28;20373;-72
2023/12/20 11:11:57;;;;;;;15.17;2.57;;;;;;;15.76;51.83;101552.91;5043818;28;20427;-73
2023/12/20 11:14:27;;;;;;;9.77;1.80;;;;;;;15.51;52.33;101547.22;5046076;28;20044;-72
2023/12/20 11:17:14;;;;;;;13.43;2.33;;;;;;;16.20;50.83;101547.63;5046427;28;20033;-72